This is the latest recevied weather packets stored in our database for station/object DK4EP-10. If no packets are shown the sender has not sent any weather packets the latest 10 day(s).
| Time | Temp. | Humidity | Pressure | Rain* | Wind** | Luminosity | Snow |
|---|---|---|---|---|---|---|---|
| 1777754255 | 15° C | 51% | 994 hPa | - | - | - | - |
| 1777753354 | 15° C | 52% | 994 hPa | - | - | - | - |
| 1777752452 | 12.78° C | 63% | 994 hPa | - | - | - | - |
| 1777751551 | 12.78° C | 64% | 994 hPa | - | - | - | - |
| 1777750650 | 12.78° C | 68% | 994 hPa | - | - | - | - |
| 1777749749 | 13.33° C | 65% | 994 hPa | - | - | - | - |
| 1777748848 | 13.33° C | 64% | 994 hPa | - | - | - | - |
| 1777747946 | 14.44° C | 63% | 994 hPa | - | - | - | - |
| 1777747045 | 15.56° C | 58% | 994 hPa | - | - | - | - |
| 1777746144 | 16.67° C | 54% | 994 hPa | - | - | - | - |
| 1777745243 | 18.89° C | 45% | 994 hPa | - | - | - | - |
| 1777744342 | 20° C | 42% | 994 hPa | - | - | - | - |
| 1777743441 | 20.56° C | 43% | 994 hPa | - | - | - | - |
| 1777742539 | 22.22° C | 41% | 994 hPa | - | - | - | - |
| 1777741638 | 22.78° C | 38% | 994 hPa | - | - | - | - |
| 1777740738 | 23.89° C | 39% | 994 hPa | - | - | - | - |
| 1777739836 | 25° C | 36% | 994 hPa | - | - | - | - |
| 1777738934 | 29.44° C | 31% | 995 hPa | - | - | - | - |
| 1777738033 | 29.44° C | 29% | 995 hPa | - | - | - | - |
| 1777737132 | 30° C | 29% | 995 hPa | - | - | - | - |
| 1777736231 | 28.89° C | 29% | 995 hPa | - | - | - | - |
| 1777735332 | 30° C | 31% | 995 hPa | - | - | - | - |
| 1777734428 | 29.44° C | 32% | 996 hPa | - | - | - | - |
| 1777733527 | 29.44° C | 32% | 996 hPa | - | - | - | - |
| 1777732626 | 28.89° C | 32% | 996 hPa | - | - | - | - |
* Rain since midnight (hover to see other rain measurements)
** Current wind speed in m/s (hover to see current wind gust speed)